sensor_id;sensor_type;location;lat;lon;timestamp;P1;durP1;ratioP1;P2;durP2;ratioP2
11006;SDS011;8186;57.652;11.968;2023-12-14T00:02:07;1.60;;;1.37;;
11006;SDS011;8186;57.652;11.968;2023-12-14T00:04:34;1.10;;;1.00;;
11006;SDS011;8186;57.652;11.968;2023-12-14T00:07:02;1.10;;;1.00;;
11006;SDS011;8186;57.652;11.968;2023-12-14T00:09:28;1.30;;;1.20;;
11006;SDS011;8186;57.652;11.968;2023-12-14T00:11:55;0.97;;;0.97;;
11006;SDS011;8186;57.652;11.968;2023-12-14T00:14:22;1.27;;;1.17;;
11006;SDS011;8186;57.652;11.968;2023-12-14T00:16:49;1.57;;;1.27;;
11006;SDS011;8186;57.652;11.968;2023-12-14T00:19:15;1.10;;;1.00;;
11006;SDS011;8186;57.652;11.968;2023-12-14T00:21:42;1.17;;;0.83;;
11006;SDS011;8186;57.652;11.968;2023-12-14T00:24:11;1.30;;;1.20;;
11006;SDS011;8186;57.652;11.968;2023-12-14T00:26:37;1.53;;;1.20;;
11006;SDS011;8186;57.652;11.968;2023-12-14T00:29:04;1.63;;;1.53;;
11006;SDS011;8186;57.652;11.968;2023-12-14T00:31:31;1.20;;;1.10;;
11006;SDS011;8186;57.652;11.968;2023-12-14T00:33:58;1.80;;;1.10;;
11006;SDS011;8186;57.652;11.968;2023-12-14T00:36:25;1.40;;;1.30;;
11006;SDS011;8186;57.652;11.968;2023-12-14T00:38:51;1.93;;;1.10;;
11006;SDS011;8186;57.652;11.968;2023-12-14T00:41:19;1.07;;;1.00;;
11006;SDS011;8186;57.652;11.968;2023-12-14T00:43:46;1.50;;;1.40;;
11006;SDS011;8186;57.652;11.968;2023-12-14T00:46:13;1.20;;;1.07;;
11006;SDS011;8186;57.652;11.968;2023-12-14T00:48:40;1.50;;;1.40;;
11006;SDS011;8186;57.652;11.968;2023-12-14T00:51:06;1.33;;;1.00;;
11006;SDS011;8186;57.652;11.968;2023-12-14T00:53:33;1.57;;;1.10;;
11006;SDS011;8186;57.652;11.968;2023-12-14T00:56:00;1.97;;;1.10;;
11006;SDS011;8186;57.652;11.968;2023-12-14T00:58:28;1.47;;;1.23;;
11006;SDS011;8186;57.652;11.968;2023-12-14T01:00:54;1.40;;;1.30;;
11006;SDS011;8186;57.652;11.968;2023-12-14T01:03:21;1.53;;;1.37;;
11006;SDS011;8186;57.652;11.968;2023-12-14T01:05:48;1.40;;;1.30;;
11006;SDS011;8186;57.652;11.968;2023-12-14T01:08:15;1.37;;;1.10;;
11006;SDS011;8186;57.652;11.968;2023-12-14T01:10:42;1.13;;;1.10;;
11006;SDS011;8186;57.652;11.968;2023-12-14T01:13:08;1.67;;;1.27;;
11006;SDS011;8186;57.652;11.968;2023-12-14T01:15:37;1.30;;;1.20;;
11006;SDS011;8186;57.652;11.968;2023-12-14T01:18:03;1.60;;;1.20;;
11006;SDS011;8186;57.652;11.968;2023-12-14T01:20:30;2.17;;;1.10;;
11006;SDS011;8186;57.652;11.968;2023-12-14T01:22:57;1.70;;;1.23;;
11006;SDS011;8186;57.652;11.968;2023-12-14T01:25:24;1.47;;;1.30;;
11006;SDS011;8186;57.652;11.968;2023-12-14T01:27:50;1.50;;;1.10;;
11006;SDS011;8186;57.652;11.968;2023-12-14T01:30:17;1.30;;;1.20;;
11006;SDS011;8186;57.652;11.968;2023-12-14T01:32:45;1.10;;;1.00;;
11006;SDS011;8186;57.652;11.968;2023-12-14T01:35:12;1.40;;;1.20;;
11006;SDS011;8186;57.652;11.968;2023-12-14T01:37:39;1.30;;;1.20;;
11006;SDS011;8186;57.652;11.968;2023-12-14T01:40:06;1.73;;;1.30;;
11006;SDS011;8186;57.652;11.968;2023-12-14T01:42:33;1.23;;;1.10;;
11006;SDS011;8186;57.652;11.968;2023-12-14T01:45:00;1.63;;;1.37;;
11006;SDS011;8186;57.652;11.968;2023-12-14T01:47:27;1.37;;;1.20;;
11006;SDS011;8186;57.652;11.968;2023-12-14T01:49:55;1.30;;;1.20;;
11006;SDS011;8186;57.652;11.968;2023-12-14T01:52:22;1.70;;;1.40;;
11006;SDS011;8186;57.652;11.968;2023-12-14T01:54:48;1.10;;;1.00;;
11006;SDS011;8186;57.652;11.968;2023-12-14T01:57:15;1.57;;;1.30;;
11006;SDS011;8186;57.652;11.968;2023-12-14T01:59:42;1.77;;;1.40;;
11006;SDS011;8186;57.652;11.968;2023-12-14T02:02:09;1.47;;;1.10;;
11006;SDS011;8186;57.652;11.968;2023-12-14T02:04:35;1.10;;;1.00;;
11006;SDS011;8186;57.652;11.968;2023-12-14T02:07:04;1.50;;;1.10;;
11006;SDS011;8186;57.652;11.968;2023-12-14T02:09:31;1.60;;;1.20;;
11006;SDS011;8186;57.652;11.968;2023-12-14T02:11:57;1.93;;;1.43;;
11006;SDS011;8186;57.652;11.968;2023-12-14T02:14:24;1.57;;;1.20;;
11006;SDS011;8186;57.652;11.968;2023-12-14T02:16:52;1.50;;;1.40;;
11006;SDS011;8186;57.652;11.968;2023-12-14T02:19:18;1.57;;;1.10;;
11006;SDS011;8186;57.652;11.968;2023-12-14T02:21:45;1.70;;;1.13;;
11006;SDS011;8186;57.652;11.968;2023-12-14T02:24:13;1.33;;;1.10;;
11006;SDS011;8186;57.652;11.968;2023-12-14T02:26:40;3.60;;;1.40;;
11006;SDS011;8186;57.652;11.968;2023-12-14T02:29:07;1.13;;;1.00;;
11006;SDS011;8186;57.652;11.968;2023-12-14T02:31:33;1.40;;;1.30;;
11006;SDS011;8186;57.652;11.968;2023-12-14T02:34:00;2.70;;;1.20;;
11006;SDS011;8186;57.652;11.968;2023-12-14T02:36:27;1.23;;;1.13;;
11006;SDS011;8186;57.652;11.968;2023-12-14T02:38:54;1.10;;;1.00;;
11006;SDS011;8186;57.652;11.968;2023-12-14T02:41:22;1.33;;;1.20;;
11006;SDS011;8186;57.652;11.968;2023-12-14T02:43:48;1.10;;;1.00;;
11006;SDS011;8186;57.652;11.968;2023-12-14T02:46:15;1.43;;;1.20;;
11006;SDS011;8186;57.652;11.968;2023-12-14T02:48:43;1.73;;;1.50;;
11006;SDS011;8186;57.652;11.968;2023-12-14T02:51:12;0.83;;;0.83;;
11006;SDS011;8186;57.652;11.968;2023-12-14T02:53:40;1.23;;;1.00;;
11006;SDS011;8186;57.652;11.968;2023-12-14T02:56:08;1.47;;;1.27;;
11006;SDS011;8186;57.652;11.968;2023-12-14T02:58:37;1.40;;;1.30;;
11006;SDS011;8186;57.652;11.968;2023-12-14T03:01:04;2.23;;;1.57;;
11006;SDS011;8186;57.652;11.968;2023-12-14T03:03:31;1.27;;;1.10;;
11006;SDS011;8186;57.652;11.968;2023-12-14T03:05:57;1.60;;;1.27;;
11006;SDS011;8186;57.652;11.968;2023-12-14T03:08:24;1.33;;;1.20;;
11006;SDS011;8186;57.652;11.968;2023-12-14T03:10:51;2.13;;;1.40;;
11006;SDS011;8186;57.652;11.968;2023-12-14T03:13:18;2.60;;;1.10;;
11006;SDS011;8186;57.652;11.968;2023-12-14T03:15:47;1.33;;;1.23;;
11006;SDS011;8186;57.652;11.968;2023-12-14T03:18:14;1.60;;;1.50;;
11006;SDS011;8186;57.652;11.968;2023-12-14T03:20:41;1.60;;;1.30;;
11006;SDS011;8186;57.652;11.968;2023-12-14T03:23:07;1.97;;;1.20;;
11006;SDS011;8186;57.652;11.968;2023-12-14T03:25:34;2.17;;;1.53;;
11006;SDS011;8186;57.652;11.968;2023-12-14T03:28:01;2.20;;;1.53;;
11006;SDS011;8186;57.652;11.968;2023-12-14T03:30:28;1.50;;;1.20;;
11006;SDS011;8186;57.652;11.968;2023-12-14T03:32:56;2.70;;;1.20;;
11006;SDS011;8186;57.652;11.968;2023-12-14T03:35:22;1.53;;;1.23;;
11006;SDS011;8186;57.652;11.968;2023-12-14T03:37:49;1.40;;;1.30;;
11006;SDS011;8186;57.652;11.968;2023-12-14T03:40:16;1.50;;;1.30;;
11006;SDS011;8186;57.652;11.968;2023-12-14T03:42:43;1.80;;;1.50;;
11006;SDS011;8186;57.652;11.968;2023-12-14T03:45:10;1.47;;;1.30;;
11006;SDS011;8186;57.652;11.968;2023-12-14T03:47:37;1.67;;;1.47;;
11006;SDS011;8186;57.652;11.968;2023-12-14T03:50:06;1.40;;;1.30;;
11006;SDS011;8186;57.652;11.968;2023-12-14T03:52:34;1.53;;;1.10;;
11006;SDS011;8186;57.652;11.968;2023-12-14T03:55:01;1.47;;;1.30;;
11006;SDS011;8186;57.652;11.968;2023-12-14T03:57:28;1.40;;;1.30;;
11006;SDS011;8186;57.652;11.968;2023-12-14T03:59:54;1.33;;;1.23;;
11006;SDS011;8186;57.652;11.968;2023-12-14T04:02:22;1.57;;;1.30;;
11006;SDS011;8186;57.652;11.968;2023-12-14T04:04:48;1.30;;;1.20;;
11006;SDS011;8186;57.652;11.968;2023-12-14T04:07:16;1.40;;;1.23;;
11006;SDS011;8186;57.652;11.968;2023-12-14T04:09:44;2.27;;;1.50;;
11006;SDS011;8186;57.652;11.968;2023-12-14T04:12:11;1.20;;;1.10;;
11006;SDS011;8186;57.652;11.968;2023-12-14T04:14:37;1.57;;;1.40;;
11006;SDS011;8186;57.652;11.968;2023-12-14T04:17:04;2.13;;;1.13;;
11006;SDS011;8186;57.652;11.968;2023-12-14T04:19:31;1.60;;;1.50;;
11006;SDS011;8186;57.652;11.968;2023-12-14T04:21:58;1.50;;;1.40;;
11006;SDS011;8186;57.652;11.968;2023-12-14T04:24:26;1.90;;;1.60;;
11006;SDS011;8186;57.652;11.968;2023-12-14T04:26:52;1.83;;;1.63;;
11006;SDS011;8186;57.652;11.968;2023-12-14T04:29:19;1.40;;;1.30;;
11006;SDS011;8186;57.652;11.968;2023-12-14T04:31:46;1.80;;;1.43;;
11006;SDS011;8186;57.652;11.968;2023-12-14T04:34:13;1.60;;;1.37;;
11006;SDS011;8186;57.652;11.968;2023-12-14T04:36:41;1.97;;;1.60;;
11006;SDS011;8186;57.652;11.968;2023-12-14T04:39:07;3.17;;;1.70;;
11006;SDS011;8186;57.652;11.968;2023-12-14T04:41:35;2.40;;;1.60;;
11006;SDS011;8186;57.652;11.968;2023-12-14T04:44:02;1.80;;;1.23;;
11006;SDS011;8186;57.652;11.968;2023-12-14T04:46:29;1.80;;;1.40;;
11006;SDS011;8186;57.652;11.968;2023-12-14T04:48:56;1.77;;;1.40;;
11006;SDS011;8186;57.652;11.968;2023-12-14T04:51:23;1.57;;;1.33;;
11006;SDS011;8186;57.652;11.968;2023-12-14T04:53:49;1.47;;;1.30;;
11006;SDS011;8186;57.652;11.968;2023-12-14T04:56:16;3.20;;;1.60;;
11006;SDS011;8186;57.652;11.968;2023-12-14T04:58:44;1.60;;;1.07;;
11006;SDS011;8186;57.652;11.968;2023-12-14T05:01:11;1.70;;;1.60;;
11006;SDS011;8186;57.652;11.968;2023-12-14T05:03:38;1.60;;;1.37;;
11006;SDS011;8186;57.652;11.968;2023-12-14T05:06:05;1.60;;;1.47;;
11006;SDS011;8186;57.652;11.968;2023-12-14T05:08:32;2.13;;;1.47;;
11006;SDS011;8186;57.652;11.968;2023-12-14T05:10:59;1.80;;;1.70;;
11006;SDS011;8186;57.652;11.968;2023-12-14T05:13:25;1.67;;;1.50;;
11006;SDS011;8186;57.652;11.968;2023-12-14T05:15:54;1.63;;;1.20;;
11006;SDS011;8186;57.652;11.968;2023-12-14T05:18:20;1.50;;;1.30;;
11006;SDS011;8186;57.652;11.968;2023-12-14T05:20:47;1.87;;;1.77;;
11006;SDS011;8186;57.652;11.968;2023-12-14T05:23:14;1.97;;;1.50;;
11006;SDS011;8186;57.652;11.968;2023-12-14T05:25:40;1.50;;;1.40;;
11006;SDS011;8186;57.652;11.968;2023-12-14T05:28:07;1.50;;;1.30;;
11006;SDS011;8186;57.652;11.968;2023-12-14T05:30:34;2.00;;;1.50;;
11006;SDS011;8186;57.652;11.968;2023-12-14T05:33:02;2.17;;;1.53;;
11006;SDS011;8186;57.652;11.968;2023-12-14T05:35:29;2.40;;;1.53;;
11006;SDS011;8186;57.652;11.968;2023-12-14T05:37:56;1.53;;;1.30;;
11006;SDS011;8186;57.652;11.968;2023-12-14T05:40:23;1.90;;;1.50;;
11006;SDS011;8186;57.652;11.968;2023-12-14T05:42:50;1.83;;;1.40;;
11006;SDS011;8186;57.652;11.968;2023-12-14T05:45:16;2.57;;;2.00;;
11006;SDS011;8186;57.652;11.968;2023-12-14T05:47:44;1.40;;;1.30;;
11006;SDS011;8186;57.652;11.968;2023-12-14T05:50:12;1.73;;;1.47;;
11006;SDS011;8186;57.652;11.968;2023-12-14T05:52:39;2.87;;;1.57;;
11006;SDS011;8186;57.652;11.968;2023-12-14T05:55:07;2.30;;;1.50;;
11006;SDS011;8186;57.652;11.968;2023-12-14T05:57:35;1.57;;;1.27;;
11006;SDS011;8186;57.652;11.968;2023-12-14T06:00:02;2.80;;;1.60;;
11006;SDS011;8186;57.652;11.968;2023-12-14T06:02:30;1.60;;;1.50;;
11006;SDS011;8186;57.652;11.968;2023-12-14T06:04:57;2.37;;;1.67;;
11006;SDS011;8186;57.652;11.968;2023-12-14T06:07:26;1.80;;;1.60;;
11006;SDS011;8186;57.652;11.968;2023-12-14T06:09:52;3.47;;;2.03;;
11006;SDS011;8186;57.652;11.968;2023-12-14T06:12:19;2.73;;;1.70;;
11006;SDS011;8186;57.652;11.968;2023-12-14T06:14:46;2.50;;;1.67;;
11006;SDS011;8186;57.652;11.968;2023-12-14T06:17:12;2.17;;;1.60;;
11006;SDS011;8186;57.652;11.968;2023-12-14T06:19:39;2.17;;;1.50;;
11006;SDS011;8186;57.652;11.968;2023-12-14T06:22:06;2.47;;;1.53;;
11006;SDS011;8186;57.652;11.968;2023-12-14T06:24:34;2.27;;;1.67;;
11006;SDS011;8186;57.652;11.968;2023-12-14T06:27:01;2.13;;;1.90;;
11006;SDS011;8186;57.652;11.968;2023-12-14T06:29:27;2.23;;;1.70;;
11006;SDS011;8186;57.652;11.968;2023-12-14T06:31:54;2.23;;;1.87;;
11006;SDS011;8186;57.652;11.968;2023-12-14T06:34:21;2.40;;;1.50;;
11006;SDS011;8186;57.652;11.968;2023-12-14T06:36:48;2.43;;;1.80;;
11006;SDS011;8186;57.652;11.968;2023-12-14T06:39:15;2.73;;;1.67;;
11006;SDS011;8186;57.652;11.968;2023-12-14T06:41:43;3.33;;;1.90;;
11006;SDS011;8186;57.652;11.968;2023-12-14T06:44:09;2.33;;;1.70;;
11006;SDS011;8186;57.652;11.968;2023-12-14T06:46:37;2.83;;;2.03;;
11006;SDS011;8186;57.652;11.968;2023-12-14T06:49:07;2.30;;;2.07;;
11006;SDS011;8186;57.652;11.968;2023-12-14T06:51:35;2.33;;;1.80;;
11006;SDS011;8186;57.652;11.968;2023-12-14T06:54:02;2.10;;;1.90;;
11006;SDS011;8186;57.652;11.968;2023-12-14T06:56:29;3.17;;;2.00;;
11006;SDS011;8186;57.652;11.968;2023-12-14T06:59:03;3.50;;;1.60;;
11006;SDS011;8186;57.652;11.968;2023-12-14T07:01:29;1.70;;;1.60;;
11006;SDS011;8186;57.652;11.968;2023-12-14T07:03:56;3.17;;;1.70;;
11006;SDS011;8186;57.652;11.968;2023-12-14T07:06:23;3.80;;;2.00;;
11006;SDS011;8186;57.652;11.968;2023-12-14T07:08:50;3.17;;;1.80;;
11006;SDS011;8186;57.652;11.968;2023-12-14T07:11:16;2.17;;;1.70;;
11006;SDS011;8186;57.652;11.968;2023-12-14T07:13:43;2.70;;;1.80;;
11006;SDS011;8186;57.652;11.968;2023-12-14T07:16:12;2.80;;;2.30;;
11006;SDS011;8186;57.652;11.968;2023-12-14T07:18:42;3.50;;;2.20;;
11006;SDS011;8186;57.652;11.968;2023-12-14T07:21:10;2.33;;;1.90;;
11006;SDS011;8186;57.652;11.968;2023-12-14T07:23:37;2.80;;;2.00;;
11006;SDS011;8186;57.652;11.968;2023-12-14T07:26:05;2.70;;;1.93;;
11006;SDS011;8186;57.652;11.968;2023-12-14T07:28:31;2.72;;;2.20;;
11006;SDS011;8186;57.652;11.968;2023-12-14T07:30:58;2.13;;;1.83;;
11006;SDS011;8186;57.652;11.968;2023-12-14T07:33:26;2.17;;;1.97;;
11006;SDS011;8186;57.652;11.968;2023-12-14T07:35:53;2.43;;;2.07;;
11006;SDS011;8186;57.652;11.968;2023-12-14T07:38:20;3.43;;;2.00;;
11006;SDS011;8186;57.652;11.968;2023-12-14T07:40:47;1.83;;;1.60;;
11006;SDS011;8186;57.652;11.968;2023-12-14T07:43:15;2.40;;;2.20;;
11006;SDS011;8186;57.652;11.968;2023-12-14T07:45:42;2.87;;;2.20;;
11006;SDS011;8186;57.652;11.968;2023-12-14T07:48:09;2.20;;;2.00;;
11006;SDS011;8186;57.652;11.968;2023-12-14T07:50:37;1.93;;;1.83;;
11006;SDS011;8186;57.652;11.968;2023-12-14T07:53:04;2.07;;;1.87;;
11006;SDS011;8186;57.652;11.968;2023-12-14T07:55:31;3.33;;;1.83;;
11006;SDS011;8186;57.652;11.968;2023-12-14T07:57:58;1.77;;;1.67;;
11006;SDS011;8186;57.652;11.968;2023-12-14T08:00:24;2.03;;;1.80;;
11006;SDS011;8186;57.652;11.968;2023-12-14T08:02:51;2.27;;;2.00;;
11006;SDS011;8186;57.652;11.968;2023-12-14T08:05:18;2.37;;;2.17;;
11006;SDS011;8186;57.652;11.968;2023-12-14T08:07:46;2.20;;;2.00;;
11006;SDS011;8186;57.652;11.968;2023-12-14T08:10:13;2.53;;;1.93;;
11006;SDS011;8186;57.652;11.968;2023-12-14T08:12:40;3.00;;;1.93;;
11006;SDS011;8186;57.652;11.968;2023-12-14T08:15:07;2.03;;;1.83;;
11006;SDS011;8186;57.652;11.968;2023-12-14T08:17:35;2.40;;;2.20;;
11006;SDS011;8186;57.652;11.968;2023-12-14T08:20:02;2.30;;;2.10;;
11006;SDS011;8186;57.652;11.968;2023-12-14T08:22:29;1.97;;;1.77;;
11006;SDS011;8186;57.652;11.968;2023-12-14T08:24:57;2.20;;;1.80;;
11006;SDS011;8186;57.652;11.968;2023-12-14T08:27:24;1.90;;;1.80;;
11006;SDS011;8186;57.652;11.968;2023-12-14T08:29:51;3.27;;;1.90;;
11006;SDS011;8186;57.652;11.968;2023-12-14T08:32:18;2.40;;;1.90;;
11006;SDS011;8186;57.652;11.968;2023-12-14T08:34:44;3.53;;;2.13;;
11006;SDS011;8186;57.652;11.968;2023-12-14T08:37:11;2.00;;;1.80;;
11006;SDS011;8186;57.652;11.968;2023-12-14T08:39:38;2.97;;;1.90;;
11006;SDS011;8186;57.652;11.968;2023-12-14T08:42:06;2.23;;;1.80;;
11006;SDS011;8186;57.652;11.968;2023-12-14T08:44:33;2.67;;;1.77;;
11006;SDS011;8186;57.652;11.968;2023-12-14T08:46:59;2.23;;;1.57;;
11006;SDS011;8186;57.652;11.968;2023-12-14T08:49:28;3.63;;;2.17;;
11006;SDS011;8186;57.652;11.968;2023-12-14T08:51:55;2.20;;;2.00;;
11006;SDS011;8186;57.652;11.968;2023-12-14T08:54:22;2.27;;;2.00;;
11006;SDS011;8186;57.652;11.968;2023-12-14T08:56:49;3.93;;;3.33;;
11006;SDS011;8186;57.652;11.968;2023-12-14T08:59:17;2.33;;;2.13;;
11006;SDS011;8186;57.652;11.968;2023-12-14T09:01:45;2.70;;;2.03;;
11006;SDS011;8186;57.652;11.968;2023-12-14T09:04:12;3.50;;;2.00;;
11006;SDS011;8186;57.652;11.968;2023-12-14T09:06:39;2.10;;;1.90;;
11006;SDS011;8186;57.652;11.968;2023-12-14T09:09:07;2.57;;;1.90;;
11006;SDS011;8186;57.652;11.968;2023-12-14T09:11:34;2.03;;;1.80;;
11006;SDS011;8186;57.652;11.968;2023-12-14T09:14:01;3.70;;;2.30;;
11006;SDS011;8186;57.652;11.968;2023-12-14T09:16:30;3.77;;;2.23;;
11006;SDS011;8186;57.652;11.968;2023-12-14T09:18:57;2.60;;;2.10;;
11006;SDS011;8186;57.652;11.968;2023-12-14T09:21:24;2.77;;;2.50;;
11006;SDS011;8186;57.652;11.968;2023-12-14T09:23:50;2.33;;;2.00;;
11006;SDS011;8186;57.652;11.968;2023-12-14T09:26:18;7.23;;;2.30;;
11006;SDS011;8186;57.652;11.968;2023-12-14T09:28:45;1.97;;;1.77;;
11006;SDS011;8186;57.652;11.968;2023-12-14T09:31:12;2.63;;;2.40;;
11006;SDS011;8186;57.652;11.968;2023-12-14T09:33:42;2.90;;;2.40;;
11006;SDS011;8186;57.652;11.968;2023-12-14T09:36:09;2.83;;;2.40;;
11006;SDS011;8186;57.652;11.968;2023-12-14T09:38:36;3.63;;;2.03;;
11006;SDS011;8186;57.652;11.968;2023-12-14T09:41:03;2.43;;;2.17;;
11006;SDS011;8186;57.652;11.968;2023-12-14T09:43:30;2.53;;;2.03;;
11006;SDS011;8186;57.652;11.968;2023-12-14T09:45:56;3.37;;;2.07;;
11006;SDS011;8186;57.652;11.968;2023-12-14T09:48:24;2.53;;;2.20;;
11006;SDS011;8186;57.652;11.968;2023-12-14T09:50:52;3.23;;;2.43;;
11006;SDS011;8186;57.652;11.968;2023-12-14T09:53:19;3.40;;;2.43;;
11006;SDS011;8186;57.652;11.968;2023-12-14T09:55:45;3.10;;;2.10;;
11006;SDS011;8186;57.652;11.968;2023-12-14T09:58:12;3.70;;;2.17;;
11006;SDS011;8186;57.652;11.968;2023-12-14T10:00:39;2.30;;;2.00;;
11006;SDS011;8186;57.652;11.968;2023-12-14T10:03:19;3.30;;;1.93;;
11006;SDS011;8186;57.652;11.968;2023-12-14T10:05:47;2.63;;;2.17;;
11006;SDS011;8186;57.652;11.968;2023-12-14T10:08:15;2.60;;;2.00;;
11006;SDS011;8186;57.652;11.968;2023-12-14T10:10:42;2.67;;;2.20;;
11006;SDS011;8186;57.652;11.968;2023-12-14T10:13:09;2.17;;;1.97;;
11006;SDS011;8186;57.652;11.968;2023-12-14T10:15:42;3.50;;;1.90;;
11006;SDS011;8186;57.652;11.968;2023-12-14T10:18:10;3.60;;;1.70;;
11006;SDS011;8186;57.652;11.968;2023-12-14T10:20:37;3.13;;;2.17;;
11006;SDS011;8186;57.652;11.968;2023-12-14T10:23:04;1.80;;;1.70;;
11006;SDS011;8186;57.652;11.968;2023-12-14T10:25:33;2.10;;;1.90;;
11006;SDS011;8186;57.652;11.968;2023-12-14T10:28:02;4.17;;;2.00;;
11006;SDS011;8186;57.652;11.968;2023-12-14T10:30:29;1.80;;;1.53;;
11006;SDS011;8186;57.652;11.968;2023-12-14T10:32:56;6.03;;;2.20;;
11006;SDS011;8186;57.652;11.968;2023-12-14T10:35:23;1.73;;;1.63;;
11006;SDS011;8186;57.652;11.968;2023-12-14T10:37:50;1.90;;;1.70;;
11006;SDS011;8186;57.652;11.968;2023-12-14T10:40:17;2.57;;;2.07;;
11006;SDS011;8186;57.652;11.968;2023-12-14T10:42:47;2.80;;;1.70;;
11006;SDS011;8186;57.652;11.968;2023-12-14T10:45:14;3.90;;;1.83;;
11006;SDS011;8186;57.652;11.968;2023-12-14T10:47:43;3.17;;;2.00;;
11006;SDS011;8186;57.652;11.968;2023-12-14T10:50:10;2.27;;;1.90;;
11006;SDS011;8186;57.652;11.968;2023-12-14T10:52:37;3.47;;;1.93;;
11006;SDS011;8186;57.652;11.968;2023-12-14T10:55:06;2.50;;;2.30;;
11006;SDS011;8186;57.652;11.968;2023-12-14T10:57:34;2.80;;;2.03;;
11006;SDS011;8186;57.652;11.968;2023-12-14T11:00:03;7.57;;;2.50;;
11006;SDS011;8186;57.652;11.968;2023-12-14T11:02:40;4.00;;;1.70;;
11006;SDS011;8186;57.652;11.968;2023-12-14T11:05:11;2.57;;;2.10;;
11006;SDS011;8186;57.652;11.968;2023-12-14T11:07:47;2.00;;;1.80;;
11006;SDS011;8186;57.652;11.968;2023-12-14T11:10:15;3.17;;;1.87;;
11006;SDS011;8186;57.652;11.968;2023-12-14T11:12:52;2.17;;;1.87;;
11006;SDS011;8186;57.652;11.968;2023-12-14T11:15:23;1.83;;;1.70;;
11006;SDS011;8186;57.652;11.968;2023-12-14T11:21:01;3.77;;;1.80;;
11006;SDS011;8186;57.652;11.968;2023-12-14T11:23:30;6.37;;;2.30;;
11006;SDS011;8186;57.652;11.968;2023-12-14T11:25:58;3.37;;;1.90;;
11006;SDS011;8186;57.652;11.968;2023-12-14T11:28:28;2.10;;;1.90;;
11006;SDS011;8186;57.652;11.968;2023-12-14T11:30:56;2.90;;;1.30;;
11006;SDS011;8186;57.652;11.968;2023-12-14T11:33:23;2.07;;;1.57;;
11006;SDS011;8186;57.652;11.968;2023-12-14T11:35:52;2.27;;;1.50;;
11006;SDS011;8186;57.652;11.968;2023-12-14T11:38:19;2.77;;;2.10;;
11006;SDS011;8186;57.652;11.968;2023-12-14T11:40:47;5.40;;;2.00;;
11006;SDS011;8186;57.652;11.968;2023-12-14T11:43:14;2.20;;;1.70;;
11006;SDS011;8186;57.652;11.968;2023-12-14T11:45:41;6.13;;;1.93;;
11006;SDS011;8186;57.652;11.968;2023-12-14T11:48:10;2.67;;;1.77;;
11006;SDS011;8186;57.652;11.968;2023-12-14T11:50:38;13.80;;;8.43;;
11006;SDS011;8186;57.652;11.968;2023-12-14T11:53:06;17.03;;;11.80;;
11006;SDS011;8186;57.652;11.968;2023-12-14T11:55:33;4.30;;;2.60;;
11006;SDS011;8186;57.652;11.968;2023-12-14T11:58:02;7.30;;;4.77;;
11006;SDS011;8186;57.652;11.968;2023-12-14T12:00:29;5.83;;;3.50;;
11006;SDS011;8186;57.652;11.968;2023-12-14T12:03:06;4.53;;;2.50;;
11006;SDS011;8186;57.652;11.968;2023-12-14T12:05:38;5.00;;;2.57;;
11006;SDS011;8186;57.652;11.968;2023-12-14T12:08:08;3.67;;;1.80;;
11006;SDS011;8186;57.652;11.968;2023-12-14T12:10:34;2.53;;;1.83;;
11006;SDS011;8186;57.652;11.968;2023-12-14T12:13:02;4.87;;;1.87;;
11006;SDS011;8186;57.652;11.968;2023-12-14T12:15:30;2.60;;;2.00;;
11006;SDS011;8186;57.652;11.968;2023-12-14T12:17:58;2.60;;;2.40;;
11006;SDS011;8186;57.652;11.968;2023-12-14T12:20:25;2.50;;;1.97;;
11006;SDS011;8186;57.652;11.968;2023-12-14T12:22:53;3.13;;;2.33;;
11006;SDS011;8186;57.652;11.968;2023-12-14T12:25:20;3.87;;;1.90;;
11006;SDS011;8186;57.652;11.968;2023-12-14T12:27:48;2.23;;;1.70;;
11006;SDS011;8186;57.652;11.968;2023-12-14T12:30:14;4.13;;;1.80;;
11006;SDS011;8186;57.652;11.968;2023-12-14T12:32:41;4.07;;;2.33;;
11006;SDS011;8186;57.652;11.968;2023-12-14T12:35:08;6.43;;;2.40;;
11006;SDS011;8186;57.652;11.968;2023-12-14T12:37:35;2.53;;;1.93;;
11006;SDS011;8186;57.652;11.968;2023-12-14T12:40:04;4.40;;;2.17;;
11006;SDS011;8186;57.652;11.968;2023-12-14T12:42:32;6.00;;;1.87;;
11006;SDS011;8186;57.652;11.968;2023-12-14T12:44:59;4.47;;;1.50;;
11006;SDS011;8186;57.652;11.968;2023-12-14T12:47:26;3.93;;;1.67;;
11006;SDS011;8186;57.652;11.968;2023-12-14T12:49:53;2.50;;;2.13;;
11006;SDS011;8186;57.652;11.968;2023-12-14T12:52:19;2.27;;;1.40;;
11006;SDS011;8186;57.652;11.968;2023-12-14T12:54:46;8.67;;;2.47;;
11006;SDS011;8186;57.652;11.968;2023-12-14T12:57:14;2.33;;;1.70;;
11006;SDS011;8186;57.652;11.968;2023-12-14T12:59:41;3.67;;;1.77;;
11006;SDS011;8186;57.652;11.968;2023-12-14T13:02:08;4.97;;;2.53;;
11006;SDS011;8186;57.652;11.968;2023-12-14T13:04:34;4.73;;;2.07;;
11006;SDS011;8186;57.652;11.968;2023-12-14T13:07:02;4.40;;;2.00;;
11006;SDS011;8186;57.652;11.968;2023-12-14T13:09:29;2.70;;;1.83;;
11006;SDS011;8186;57.652;11.968;2023-12-14T13:11:56;3.97;;;2.28;;
11006;SDS011;8186;57.652;11.968;2023-12-14T13:14:24;6.83;;;2.07;;
11006;SDS011;8186;57.652;11.968;2023-12-14T13:16:51;3.83;;;2.17;;
11006;SDS011;8186;57.652;11.968;2023-12-14T13:19:18;4.67;;;2.00;;
11006;SDS011;8186;57.652;11.968;2023-12-14T13:21:44;4.43;;;2.17;;
11006;SDS011;8186;57.652;11.968;2023-12-14T13:24:11;6.30;;;2.10;;
11006;SDS011;8186;57.652;11.968;2023-12-14T13:26:38;5.93;;;2.20;;
11006;SDS011;8186;57.652;11.968;2023-12-14T13:29:05;4.30;;;2.23;;
11006;SDS011;8186;57.652;11.968;2023-12-14T13:31:34;5.33;;;2.07;;
11006;SDS011;8186;57.652;11.968;2023-12-14T13:34:00;4.07;;;2.10;;
11006;SDS011;8186;57.652;11.968;2023-12-14T13:36:28;4.50;;;1.73;;
11006;SDS011;8186;57.652;11.968;2023-12-14T13:38:56;3.97;;;2.33;;
11006;SDS011;8186;57.652;11.968;2023-12-14T13:41:23;4.60;;;2.57;;
11006;SDS011;8186;57.652;11.968;2023-12-14T13:43:50;3.07;;;1.97;;
11006;SDS011;8186;57.652;11.968;2023-12-14T13:46:17;2.07;;;1.87;;
11006;SDS011;8186;57.652;11.968;2023-12-14T13:48:46;4.07;;;2.03;;
11006;SDS011;8186;57.652;11.968;2023-12-14T13:51:12;5.10;;;2.10;;
11006;SDS011;8186;57.652;11.968;2023-12-14T13:53:40;6.33;;;2.10;;
11006;SDS011;8186;57.652;11.968;2023-12-14T13:56:07;3.73;;;1.80;;
11006;SDS011;8186;57.652;11.968;2023-12-14T13:58:34;3.47;;;3.00;;
11006;SDS011;8186;57.652;11.968;2023-12-14T14:01:03;8.70;;;4.20;;
11006;SDS011;8186;57.652;11.968;2023-12-14T14:03:32;4.80;;;2.90;;
11006;SDS011;8186;57.652;11.968;2023-12-14T14:06:00;7.03;;;3.03;;
11006;SDS011;8186;57.652;11.968;2023-12-14T14:08:28;4.10;;;3.43;;
11006;SDS011;8186;57.652;11.968;2023-12-14T14:10:56;7.07;;;2.20;;
11006;SDS011;8186;57.652;11.968;2023-12-14T14:13:23;4.03;;;2.10;;
11006;SDS011;8186;57.652;11.968;2023-12-14T14:15:50;4.43;;;2.40;;
11006;SDS011;8186;57.652;11.968;2023-12-14T14:18:17;6.40;;;2.13;;
11006;SDS011;8186;57.652;11.968;2023-12-14T14:20:44;3.03;;;2.33;;
11006;SDS011;8186;57.652;11.968;2023-12-14T14:23:12;3.40;;;2.03;;
11006;SDS011;8186;57.652;11.968;2023-12-14T14:25:39;4.70;;;2.40;;
11006;SDS011;8186;57.652;11.968;2023-12-14T14:28:06;6.80;;;2.53;;
11006;SDS011;8186;57.652;11.968;2023-12-14T14:30:33;4.47;;;2.17;;
11006;SDS011;8186;57.652;11.968;2023-12-14T14:33:01;2.77;;;2.10;;
11006;SDS011;8186;57.652;11.968;2023-12-14T14:35:28;2.47;;;2.20;;
11006;SDS011;8186;57.652;11.968;2023-12-14T14:37:55;3.63;;;2.20;;
11006;SDS011;8186;57.652;11.968;2023-12-14T14:40:23;3.37;;;1.87;;
11006;SDS011;8186;57.652;11.968;2023-12-14T14:42:51;4.03;;;2.57;;
11006;SDS011;8186;57.652;11.968;2023-12-14T14:45:18;5.33;;;2.67;;
11006;SDS011;8186;57.652;11.968;2023-12-14T14:47:45;4.70;;;2.10;;
11006;SDS011;8186;57.652;11.968;2023-12-14T14:50:11;6.57;;;2.47;;
11006;SDS011;8186;57.652;11.968;2023-12-14T14:52:39;3.37;;;2.30;;